createdAt,value
2024-01-08T00:00:43.979Z,61.96
2024-01-08T00:03:11.272Z,61.96
2024-01-08T00:05:41.956Z,62.06
2024-01-08T00:08:09.630Z,62.51
2024-01-08T00:10:39.831Z,61.68
2024-01-08T00:13:07.306Z,61.76
2024-01-08T00:15:34.503Z,61.86
2024-01-08T00:18:01.984Z,61.81
2024-01-08T00:20:29.234Z,61.59
2024-01-08T00:22:56.408Z,61.98
2024-01-08T00:25:23.612Z,61.64
2024-01-08T00:27:51.584Z,61.85
2024-01-08T00:30:19.342Z,61.53
2024-01-08T00:32:46.886Z,61.76
2024-01-08T00:35:14.819Z,61.94
2024-01-08T00:37:44.983Z,61.49
2024-01-08T00:40:12.313Z,61.67
2024-01-08T00:42:40.767Z,61.70
2024-01-08T00:45:08.786Z,61.45
2024-01-08T00:47:35.886Z,61.44
2024-01-08T00:50:03.609Z,61.72
2024-01-08T00:52:30.851Z,61.42
2024-01-08T00:55:03.044Z,61.67
2024-01-08T00:57:30.148Z,61.86
2024-01-08T00:59:56.830Z,62.00
2024-01-08T01:02:23.747Z,61.79
2024-01-08T01:04:51.035Z,61.89
2024-01-08T01:07:18.426Z,61.57
2024-01-08T01:09:45.001Z,61.43
2024-01-08T01:12:12.325Z,61.48
2024-01-08T01:14:39.241Z,61.65
2024-01-08T01:17:06.147Z,61.39
2024-01-08T01:19:33.076Z,61.69
2024-01-08T01:22:00.294Z,61.70
2024-01-08T01:24:27.072Z,61.70
2024-01-08T01:26:53.794Z,61.81
2024-01-08T01:29:20.555Z,62.01
2024-01-08T01:31:47.312Z,61.86
2024-01-08T01:34:14.231Z,62.07
2024-01-08T01:36:41.214Z,61.80
2024-01-08T01:39:08.654Z,61.39
2024-01-08T01:41:35.584Z,61.52
2024-01-08T01:44:02.556Z,61.54
2024-01-08T01:46:46.942Z,61.25
2024-01-08T01:49:16.509Z,61.42
2024-01-08T01:51:45.220Z,61.37
2024-01-08T01:54:21.677Z,61.61
2024-01-08T01:56:52.508Z,61.50
2024-01-08T01:59:20.041Z,61.62
2024-01-08T02:01:47.196Z,61.25
2024-01-08T02:04:16.433Z,61.61
2024-01-08T02:06:45.314Z,61.50
2024-01-08T02:09:14.996Z,61.48
2024-01-08T02:11:41.921Z,61.25
2024-01-08T02:14:18.997Z,61.61
2024-01-08T02:16:45.808Z,61.65
2024-01-08T02:19:13.401Z,61.40
2024-01-08T02:21:40.268Z,60.92
2024-01-08T02:24:07.603Z,61.05
2024-01-08T02:26:35.770Z,61.04
2024-01-08T02:29:03.263Z,60.88
2024-01-08T02:31:30.985Z,61.27
2024-01-08T02:33:58.020Z,61.37
2024-01-08T02:36:24.722Z,61.25
2024-01-08T02:38:51.455Z,61.22
2024-01-08T02:41:18.364Z,60.51
2024-01-08T02:43:45.218Z,60.71
2024-01-08T02:46:12.125Z,60.71
2024-01-08T02:48:38.943Z,60.80
2024-01-08T02:51:05.900Z,60.83
2024-01-08T02:53:33.051Z,61.00
2024-01-08T02:55:59.801Z,61.15
2024-01-08T02:58:26.930Z,60.41
2024-01-08T03:00:53.988Z,60.64
2024-01-08T03:03:20.736Z,60.72
2024-01-08T03:05:47.425Z,60.78
2024-01-08T03:08:14.356Z,60.68
2024-01-08T03:10:41.127Z,60.62
2024-01-08T03:13:08.292Z,60.64
2024-01-08T03:15:34.934Z,60.66
2024-01-08T03:18:01.789Z,60.92
2024-01-08T03:20:28.831Z,60.86
2024-01-08T03:22:55.667Z,60.58
2024-01-08T03:25:22.440Z,60.73
2024-01-08T03:27:49.270Z,60.57
2024-01-08T03:30:16.833Z,60.28
2024-01-08T03:32:44.098Z,60.09
2024-01-08T03:35:11.977Z,60.58
2024-01-08T03:37:39.748Z,60.62
2024-01-08T03:40:07.781Z,60.51
2024-01-08T03:42:34.763Z,60.52
2024-01-08T03:45:01.471Z,60.74
2024-01-08T03:47:28.278Z,60.94
2024-01-08T03:49:56.796Z,61.31
2024-01-08T03:52:26.462Z,60.64
2024-01-08T03:54:53.191Z,60.73
2024-01-08T03:57:19.901Z,60.35
2024-01-08T03:59:47.649Z,60.53
2024-01-08T04:02:15.509Z,60.73
2024-01-08T04:04:43.562Z,60.62
2024-01-08T04:07:12.003Z,60.58
2024-01-08T04:09:41.030Z,60.69
2024-01-08T04:12:08.524Z,60.52
2024-01-08T04:14:37.456Z,60.94
2024-01-08T04:17:06.951Z,60.78
2024-01-08T04:19:33.835Z,60.63
2024-01-08T04:22:00.852Z,60.66
2024-01-08T04:24:27.747Z,60.69
2024-01-08T04:26:54.522Z,60.67
2024-01-08T04:29:21.358Z,60.48
2024-01-08T04:31:48.281Z,60.46
2024-01-08T04:34:15.096Z,60.41
2024-01-08T04:36:45.933Z,60.64
2024-01-08T04:39:12.980Z,60.82
2024-01-08T04:41:41.370Z,60.41
2024-01-08T04:44:10.921Z,60.63
2024-01-08T04:46:38.035Z,60.66
2024-01-08T04:49:05.931Z,60.61
2024-01-08T04:51:34.664Z,60.43
2024-01-08T04:54:02.055Z,60.69
2024-01-08T04:56:31.705Z,60.76
2024-01-08T04:58:58.594Z,60.77
2024-01-08T05:01:26.289Z,60.82
2024-01-08T05:03:53.297Z,60.83
2024-01-08T05:06:20.593Z,60.69
2024-01-08T05:08:47.842Z,60.97
2024-01-08T05:11:15.273Z,60.68
2024-01-08T05:13:42.666Z,60.21
2024-01-08T05:16:10.290Z,60.44
2024-01-08T05:18:37.824Z,60.44
2024-01-08T05:21:09.274Z,60.48
2024-01-08T05:23:36.035Z,60.63
2024-01-08T05:26:02.924Z,60.42
2024-01-08T05:28:30.407Z,60.55
2024-01-08T05:30:57.878Z,60.59
2024-01-08T05:33:26.632Z,60.62
2024-01-08T05:35:53.727Z,60.54
2024-01-08T05:38:20.736Z,60.40
2024-01-08T05:40:48.032Z,60.51
2024-01-08T05:43:14.965Z,60.36
2024-01-08T05:45:42.510Z,60.28
2024-01-08T05:48:13.214Z,60.63
2024-01-08T05:50:40.904Z,60.75
2024-01-08T05:53:07.745Z,60.52
2024-01-08T05:55:34.650Z,61.05
2024-01-08T05:58:01.552Z,60.46
2024-01-08T06:00:28.483Z,60.54
2024-01-08T06:02:55.203Z,60.23
2024-01-08T06:05:21.878Z,60.28
2024-01-08T06:07:50.212Z,60.28
2024-01-08T06:10:17.077Z,60.10
2024-01-08T06:12:43.830Z,60.09
2024-01-08T06:15:11.913Z,59.80
2024-01-08T06:17:41.022Z,59.85
2024-01-08T06:20:10.556Z,59.78
2024-01-08T06:22:37.475Z,59.82
2024-01-08T06:25:05.673Z,59.62
2024-01-08T06:27:33.258Z,59.77
2024-01-08T06:30:00.844Z,59.64
2024-01-08T06:32:27.950Z,59.54
2024-01-08T06:34:55.135Z,59.53
2024-01-08T06:37:22.098Z,59.06
2024-01-08T06:39:49.068Z,59.38
2024-01-08T06:42:15.919Z,59.25
2024-01-08T06:44:42.652Z,59.74
2024-01-08T06:47:09.745Z,59.56
2024-01-08T06:49:36.646Z,59.45
2024-01-08T06:52:03.435Z,59.35
2024-01-08T06:54:30.223Z,59.33
2024-01-08T06:56:57.135Z,59.10
2024-01-08T06:59:24.068Z,59.39
2024-01-08T07:01:53.378Z,59.45
2024-01-08T07:04:20.675Z,59.54
2024-01-08T07:06:47.464Z,59.44
2024-01-08T07:09:14.449Z,59.16
2024-01-08T07:11:41.225Z,59.28
2024-01-08T07:14:08.206Z,59.50
2024-01-08T07:16:34.949Z,59.31
2024-01-08T07:19:02.076Z,58.98
2024-01-08T07:21:29.288Z,59.11
2024-01-08T07:23:56.040Z,59.29
2024-01-08T07:26:22.834Z,59.16
2024-01-08T07:28:50.280Z,59.00
2024-01-08T07:31:17.470Z,58.77
2024-01-08T07:33:44.698Z,58.79
2024-01-08T07:36:11.556Z,58.74
2024-01-08T07:38:38.768Z,58.66
2024-01-08T07:41:08.809Z,58.69
2024-01-08T07:43:39.149Z,58.54
2024-01-08T07:46:06.097Z,58.90
2024-01-08T07:48:33.206Z,58.84
2024-01-08T07:51:01.568Z,58.39
2024-01-08T07:53:28.377Z,58.68
2024-01-08T07:55:55.226Z,58.88
2024-01-08T07:58:28.412Z,58.78
2024-01-08T08:01:03.772Z,58.72
2024-01-08T08:03:31.089Z,58.52
2024-01-08T08:05:59.854Z,58.26
2024-01-08T08:08:27.240Z,58.26
2024-01-08T08:10:54.035Z,58.63
2024-01-08T08:13:20.968Z,58.26
2024-01-08T08:15:47.620Z,58.12
2024-01-08T08:18:14.513Z,58.14
2024-01-08T08:20:41.587Z,58.23
2024-01-08T08:23:08.526Z,58.24
2024-01-08T08:25:35.326Z,58.10
2024-01-08T08:28:02.082Z,57.82
2024-01-08T08:30:28.963Z,58.16
2024-01-08T08:32:59.976Z,58.08
2024-01-08T08:35:27.049Z,58.44
2024-01-08T08:37:55.006Z,58.17
2024-01-08T08:40:23.633Z,58.27
2024-01-08T08:42:51.116Z,58.17
2024-01-08T08:45:19.397Z,58.55
2024-01-08T08:47:46.594Z,58.58
2024-01-08T08:50:14.084Z,58.45
2024-01-08T08:52:41.138Z,58.51
2024-01-08T08:55:11.207Z,58.55
2024-01-08T08:57:38.550Z,58.31
2024-01-08T09:00:08.491Z,58.24
2024-01-08T09:02:35.483Z,58.48
2024-01-08T09:05:02.754Z,58.25
2024-01-08T09:07:29.759Z,58.26
2024-01-08T09:09:56.554Z,58.54
2024-01-08T09:12:23.328Z,58.28
2024-01-08T09:14:50.265Z,58.25
2024-01-08T09:17:17.081Z,57.91
2024-01-08T09:19:45.235Z,58.22
2024-01-08T09:22:13.271Z,58.48
2024-01-08T09:24:39.899Z,58.25
2024-01-08T09:27:07.348Z,58.04
2024-01-08T09:29:34.187Z,58.09
2024-01-08T09:32:00.941Z,58.57
2024-01-08T09:34:27.811Z,58.58
2024-01-08T09:36:56.947Z,58.50
2024-01-08T09:39:43.943Z,58.31
2024-01-08T09:42:34.319Z,58.12
2024-01-08T09:45:24.498Z,58.42
2024-01-08T09:47:52.464Z,58.06
2024-01-08T09:50:20.757Z,58.03
2024-01-08T09:52:48.358Z,58.46
2024-01-08T09:55:16.130Z,58.30
2024-01-08T09:57:42.936Z,58.06
2024-01-08T10:00:11.476Z,58.03
2024-01-08T10:02:39.313Z,57.96
2024-01-08T10:05:08.796Z,58.09
2024-01-08T10:07:36.600Z,58.06
2024-01-08T10:10:06.476Z,58.33
2024-01-08T10:12:33.905Z,58.17
2024-01-08T10:15:02.921Z,58.35
2024-01-08T10:17:31.810Z,58.26
2024-01-08T10:20:12.531Z,57.98
2024-01-08T10:22:39.656Z,57.92
2024-01-08T10:25:07.422Z,58.02
2024-01-08T10:27:35.126Z,57.89
2024-01-08T10:30:04.313Z,57.89
2024-01-08T10:32:31.648Z,57.55
2024-01-08T10:34:58.947Z,57.55
2024-01-08T10:37:27.281Z,58.05
2024-01-08T10:39:57.021Z,57.97
2024-01-08T10:42:25.265Z,57.88
2024-01-08T10:44:52.289Z,58.12
2024-01-08T10:47:27.842Z,58.18
2024-01-08T10:49:58.711Z,58.12
2024-01-08T10:52:33.615Z,57.98
2024-01-08T10:55:03.281Z,58.20
2024-01-08T10:57:44.914Z,58.04
2024-01-08T11:00:14.155Z,58.34
2024-01-08T11:02:42.456Z,58.97
2024-01-08T11:05:10.191Z,58.72
2024-01-08T11:07:40.058Z,58.62
2024-01-08T11:10:08.270Z,58.50
2024-01-08T11:12:41.488Z,58.40
2024-01-08T11:15:10.011Z,58.15
2024-01-08T11:17:36.908Z,58.21
2024-01-08T11:20:08.431Z,58.09
2024-01-08T11:22:39.026Z,58.13
2024-01-08T11:25:07.204Z,58.17
2024-01-08T11:27:34.283Z,58.44
2024-01-08T11:30:05.581Z,58.46
2024-01-08T11:32:33.451Z,58.49
2024-01-08T11:35:11.178Z,58.39
2024-01-08T11:37:43.718Z,58.20
2024-01-08T11:40:18.696Z,58.27
2024-01-08T11:42:46.827Z,58.46
2024-01-08T11:45:14.038Z,58.23
2024-01-08T11:47:41.111Z,57.98
2024-01-08T11:50:08.890Z,58.13
2024-01-08T11:52:39.395Z,58.14
2024-01-08T11:55:10.563Z,58.37
2024-01-08T11:57:38.229Z,58.49
2024-01-08T12:00:15.499Z,58.29
2024-01-08T12:02:42.529Z,58.18
2024-01-08T12:05:10.454Z,58.22
2024-01-08T12:07:39.414Z,58.29
2024-01-08T12:10:09.046Z,58.25
2024-01-08T12:12:37.222Z,58.47
2024-01-08T12:15:05.761Z,58.42
2024-01-08T12:17:33.394Z,58.29
2024-01-08T12:20:00.429Z,58.38
2024-01-08T12:22:27.642Z,58.29
2024-01-08T12:24:56.574Z,58.44
2024-01-08T12:27:26.710Z,58.49
2024-01-08T12:29:56.300Z,58.36
2024-01-08T12:32:24.989Z,58.38
2024-01-08T12:34:52.460Z,58.45
2024-01-08T12:37:22.439Z,58.33
2024-01-08T12:39:49.183Z,58.57
2024-01-08T12:42:20.241Z,58.57
2024-01-08T12:44:51.230Z,58.52
2024-01-08T12:47:18.158Z,58.50
2024-01-08T12:49:45.170Z,58.46
2024-01-08T12:52:13.872Z,58.22
2024-01-08T12:54:42.946Z,58.27
2024-01-08T12:57:12.558Z,58.26
2024-01-08T12:59:52.188Z,58.16
2024-01-08T13:02:19.851Z,58.15
2024-01-08T13:04:47.269Z,58.32
2024-01-08T13:07:14.433Z,58.35
2024-01-08T13:09:41.170Z,58.13
2024-01-08T13:12:10.250Z,58.28
2024-01-08T13:14:37.113Z,58.36
2024-01-08T13:17:04.576Z,58.21
2024-01-08T13:19:34.387Z,58.31
2024-01-08T13:22:03.340Z,58.20
2024-01-08T13:24:30.133Z,58.32
2024-01-08T13:26:56.919Z,58.42
2024-01-08T13:29:23.751Z,58.65
2024-01-08T13:31:50.554Z,58.49
2024-01-08T13:34:17.378Z,58.50
2024-01-08T13:36:44.225Z,58.69
2024-01-08T13:39:11.767Z,58.19
2024-01-08T13:41:40.091Z,58.23
2024-01-08T13:44:07.858Z,57.99
2024-01-08T13:46:35.622Z,58.06
2024-01-08T13:49:03.058Z,58.26
2024-01-08T13:51:29.976Z,58.28
2024-01-08T13:53:56.765Z,58.29
2024-01-08T13:56:23.618Z,58.53
2024-01-08T13:58:51.448Z,58.33
2024-01-08T14:01:18.741Z,58.39
2024-01-08T14:03:45.987Z,58.48
2024-01-08T14:06:14.398Z,58.39
2024-01-08T14:08:41.790Z,58.50
2024-01-08T14:11:09.235Z,58.39
2024-01-08T14:13:36.071Z,58.68
2024-01-08T14:16:03.758Z,58.35
2024-01-08T14:18:31.707Z,58.40
2024-01-08T14:20:58.917Z,58.50
2024-01-08T14:23:26.192Z,58.41
2024-01-08T14:25:53.961Z,58.69
2024-01-08T14:28:20.909Z,58.35
2024-01-08T14:30:47.638Z,58.36
2024-01-08T14:33:14.595Z,58.55
2024-01-08T14:35:41.442Z,58.22
2024-01-08T14:38:08.297Z,58.02
2024-01-08T14:40:37.775Z,58.39
2024-01-08T14:43:09.979Z,58.40
2024-01-08T14:45:37.352Z,58.39
2024-01-08T14:48:04.886Z,58.31
2024-01-08T14:50:31.986Z,58.42
2024-01-08T14:52:58.764Z,58.35
2024-01-08T14:55:25.985Z,58.71
2024-01-08T14:57:52.792Z,58.31
2024-01-08T15:00:19.789Z,58.42
2024-01-08T15:02:47.000Z,58.40
2024-01-08T15:05:14.210Z,58.54
2024-01-08T15:07:40.983Z,58.37
2024-01-08T15:10:09.414Z,58.33
2024-01-08T15:12:36.718Z,58.48
2024-01-08T15:15:06.303Z,58.58
2024-01-08T15:17:33.357Z,58.36
2024-01-08T15:20:00.655Z,58.50
2024-01-08T15:22:28.119Z,58.30
2024-01-08T15:24:57.612Z,58.43
2024-01-08T15:27:25.782Z,58.62
2024-01-08T15:29:55.917Z,58.50
2024-01-08T15:32:25.010Z,58.64
2024-01-08T15:34:52.661Z,58.64
2024-01-08T15:37:19.708Z,58.47
2024-01-08T15:39:46.440Z,58.49
2024-01-08T15:42:13.435Z,58.51
2024-01-08T15:44:40.339Z,58.75
2024-01-08T15:47:07.328Z,58.50
2024-01-08T15:49:34.220Z,58.71
2024-01-08T15:52:01.737Z,58.58
2024-01-08T15:54:28.533Z,58.34
2024-01-08T15:56:55.412Z,58.49
2024-01-08T15:59:22.457Z,58.60
2024-01-08T16:01:49.631Z,58.59
2024-01-08T16:04:17.430Z,58.58
2024-01-08T16:06:47.187Z,58.47
2024-01-08T16:09:16.179Z,58.64
2024-01-08T16:11:43.421Z,58.53
2024-01-08T16:14:10.637Z,58.50
2024-01-08T16:16:37.366Z,58.46
2024-01-08T16:19:04.474Z,58.35
2024-01-08T16:21:31.688Z,58.62
2024-01-08T16:24:06.246Z,58.50
2024-01-08T16:26:37.641Z,58.56
2024-01-08T16:29:04.756Z,58.84
2024-01-08T16:31:31.701Z,58.78
2024-01-08T16:33:58.456Z,58.39
2024-01-08T16:36:25.763Z,58.62
2024-01-08T16:38:52.725Z,58.85
2024-01-08T16:41:19.643Z,58.60
2024-01-08T16:43:48.798Z,58.83
2024-01-08T16:46:15.682Z,58.62
2024-01-08T16:48:42.707Z,58.75
2024-01-08T16:51:11.729Z,59.07
2024-01-08T16:53:38.981Z,58.99
2024-01-08T16:56:05.884Z,58.60
2024-01-08T16:58:32.610Z,58.75
2024-01-08T17:00:59.574Z,58.66
2024-01-08T17:03:26.500Z,58.74
2024-01-08T17:05:55.580Z,58.86
2024-01-08T17:08:23.318Z,58.56
2024-01-08T17:10:50.204Z,58.46
2024-01-08T17:13:16.925Z,58.49
2024-01-08T17:15:44.620Z,58.53
2024-01-08T17:18:11.692Z,58.55
2024-01-08T17:20:38.662Z,58.69
2024-01-08T17:23:05.590Z,58.78
2024-01-08T17:25:32.595Z,58.60
2024-01-08T17:27:59.436Z,58.55
2024-01-08T17:30:26.223Z,58.62
2024-01-08T17:32:53.533Z,58.68
2024-01-08T17:35:20.279Z,58.51
2024-01-08T17:37:46.991Z,58.79
2024-01-08T17:40:15.780Z,58.53
2024-01-08T17:42:42.585Z,58.70
2024-01-08T17:45:09.768Z,58.70
2024-01-08T17:47:37.175Z,58.72
2024-01-08T17:50:04.730Z,58.46
2024-01-08T17:52:33.078Z,58.66
2024-01-08T17:55:00.514Z,58.55
2024-01-08T17:57:27.419Z,58.44
2024-01-08T17:59:54.366Z,58.53
2024-01-08T18:02:21.272Z,58.46
2024-01-08T18:04:48.526Z,58.40
2024-01-08T18:07:15.911Z,58.65
2024-01-08T18:09:43.161Z,58.11
2024-01-08T18:12:10.399Z,58.16
2024-01-08T18:14:37.281Z,58.21
2024-01-08T18:17:05.282Z,58.22
2024-01-08T18:19:32.628Z,58.29
2024-01-08T18:21:59.774Z,58.26
2024-01-08T18:24:31.880Z,58.49
2024-01-08T18:27:01.717Z,58.44
2024-01-08T18:29:28.917Z,58.44
2024-01-08T18:31:55.900Z,58.64
2024-01-08T18:34:22.779Z,58.67
2024-01-08T18:36:49.726Z,58.46
2024-01-08T18:39:20.511Z,58.62
2024-01-08T18:41:49.479Z,58.60
2024-01-08T18:44:18.427Z,58.57
2024-01-08T18:46:45.514Z,58.64
2024-01-08T18:49:12.607Z,58.54
2024-01-08T18:51:39.249Z,58.28
2024-01-08T18:54:06.194Z,58.45
2024-01-08T18:56:33.190Z,58.59
2024-01-08T18:59:00.309Z,58.42
2024-01-08T19:01:28.268Z,58.46
2024-01-08T19:03:56.284Z,58.60
2024-01-08T19:06:27.022Z,58.45
2024-01-08T19:08:54.239Z,58.45
2024-01-08T19:11:21.352Z,58.60
2024-01-08T19:13:48.273Z,58.51
2024-01-08T19:16:20.335Z,58.35
2024-01-08T19:18:47.854Z,58.31
2024-01-08T19:21:15.315Z,58.43
2024-01-08T19:23:42.402Z,58.73
2024-01-08T19:26:10.784Z,58.28
2024-01-08T19:28:39.819Z,58.67
2024-01-08T19:31:09.208Z,58.71
2024-01-08T19:33:36.309Z,58.61
2024-01-08T19:36:03.601Z,58.49
2024-01-08T19:38:30.387Z,58.75
2024-01-08T19:40:58.296Z,58.71
2024-01-08T19:43:26.106Z,58.68
2024-01-08T19:45:52.839Z,58.88
2024-01-08T19:48:20.153Z,58.72
2024-01-08T19:50:47.222Z,58.70
2024-01-08T19:53:14.072Z,58.99
2024-01-08T19:55:40.911Z,59.01
2024-01-08T19:58:07.878Z,58.92
2024-01-08T20:00:34.913Z,59.00
2024-01-08T20:03:02.033Z,58.91
2024-01-08T20:05:31.093Z,59.13
2024-01-08T20:07:58.157Z,58.97
2024-01-08T20:10:26.259Z,59.01
2024-01-08T20:12:53.180Z,58.88
2024-01-08T20:15:20.109Z,59.07
2024-01-08T20:17:48.077Z,58.96
2024-01-08T20:20:16.865Z,59.04
2024-01-08T20:22:43.869Z,58.97
2024-01-08T20:25:10.787Z,59.05
2024-01-08T20:27:37.540Z,59.09
2024-01-08T20:30:05.287Z,58.94
2024-01-08T20:32:32.279Z,59.04
2024-01-08T20:34:59.180Z,59.04
2024-01-08T20:37:26.803Z,59.27
2024-01-08T20:39:53.705Z,58.97
2024-01-08T20:42:20.495Z,59.33
2024-01-08T20:44:47.260Z,59.07
2024-01-08T20:47:14.446Z,59.16
2024-01-08T20:49:41.605Z,59.26
2024-01-08T20:52:08.793Z,59.06
2024-01-08T20:54:35.525Z,59.26
2024-01-08T20:57:05.333Z,59.14
2024-01-08T20:59:39.593Z,59.32
2024-01-08T21:02:07.178Z,59.02
2024-01-08T21:04:34.151Z,59.08
2024-01-08T21:07:01.127Z,59.35
2024-01-08T21:09:28.097Z,59.30
2024-01-08T21:11:54.913Z,59.29
2024-01-08T21:14:21.803Z,59.26
2024-01-08T21:16:48.739Z,59.21
2024-01-08T21:19:15.513Z,59.40
2024-01-08T21:21:43.108Z,59.11
2024-01-08T21:24:10.088Z,59.27
2024-01-08T21:26:37.927Z,59.08
2024-01-08T21:29:04.888Z,59.47
2024-01-08T21:31:31.735Z,59.49
2024-01-08T21:33:58.559Z,59.33
2024-01-08T21:36:26.110Z,59.48
2024-01-08T21:38:52.970Z,59.21
2024-01-08T21:41:20.318Z,59.73
2024-01-08T21:43:47.309Z,59.52
2024-01-08T21:46:14.688Z,59.64
2024-01-08T21:48:45.474Z,59.43
2024-01-08T21:51:13.320Z,59.56
2024-01-08T21:53:40.702Z,59.52
2024-01-08T21:56:08.410Z,59.48
2024-01-08T21:58:35.259Z,59.55
2024-01-08T22:01:02.108Z,59.86
2024-01-08T22:03:28.944Z,59.71
2024-01-08T22:05:55.999Z,59.84
2024-01-08T22:08:23.703Z,59.80
2024-01-08T22:10:50.857Z,59.77
2024-01-08T22:13:17.580Z,60.23
2024-01-08T22:15:45.954Z,60.12
2024-01-08T22:18:14.137Z,59.99
2024-01-08T22:20:41.408Z,60.01
2024-01-08T22:23:08.966Z,60.13
2024-01-08T22:25:37.823Z,60.27
2024-01-08T22:28:05.077Z,60.23
2024-01-08T22:30:32.445Z,60.08
2024-01-08T22:32:59.344Z,60.11
2024-01-08T22:35:27.143Z,59.92
2024-01-08T22:37:53.827Z,59.97
2024-01-08T22:40:20.563Z,59.91
2024-01-08T22:42:47.324Z,59.98
2024-01-08T22:45:14.262Z,60.15
2024-01-08T22:47:43.641Z,59.83
2024-01-08T22:50:11.367Z,59.93
2024-01-08T22:52:38.353Z,59.98
2024-01-08T22:55:05.723Z,60.09
2024-01-08T22:57:32.345Z,59.92
2024-01-08T23:00:00.863Z,60.25
2024-01-08T23:02:27.684Z,60.23
2024-01-08T23:04:54.474Z,60.02
2024-01-08T23:07:21.429Z,60.12
2024-01-08T23:09:48.153Z,60.34
2024-01-08T23:12:14.794Z,60.32
2024-01-08T23:14:41.727Z,60.16
2024-01-08T23:17:08.567Z,60.23
2024-01-08T23:19:35.600Z,60.39
2024-01-08T23:22:02.327Z,60.29
2024-01-08T23:24:30.240Z,60.10
2024-01-08T23:27:01.592Z,60.34
2024-01-08T23:29:28.288Z,60.22
2024-01-08T23:31:55.046Z,60.20
2024-01-08T23:34:22.388Z,60.10
2024-01-08T23:36:50.437Z,59.96
2024-01-08T23:39:17.362Z,59.80
2024-01-08T23:41:44.642Z,59.69
2024-01-08T23:44:14.046Z,59.85
2024-01-08T23:46:41.825Z,59.67
2024-01-08T23:49:08.652Z,59.64
2024-01-08T23:51:35.622Z,59.61
2024-01-08T23:54:02.463Z,59.64
2024-01-08T23:56:29.193Z,59.54
2024-01-08T23:58:56.028Z,59.71
